Time;durP1;ratioP1;P1;durP2;ratioP2;P2;SDS_P1;SDS_P2;PMS_P1;PMS_P2;Temp;Humidity;BMP_temperature;BMP_pressure;BME280_temperature;BME280_humidity;BME280_pressure;Samples;Min_cycle;Max_cycle;Signal;HPM_P1;HPM_P2
2024/01/20 00:02:40;;;;;;;9.40;4.30;;;;;;;-2.84;80.75;100912.05;129935;1259;114776;-62
2024/01/20 00:05:42;;;;;;;11.40;3.90;;;;;;;-2.85;80.94;100908.54;129952;1259;114724;-63
2024/01/20 00:08:45;;;;;;;10.10;4.20;;;;;;;-2.86;81.21;100911.14;129920;1257;114818;-62
2024/01/20 00:11:47;;;;;;;10.30;4.90;;;;;;;-2.89;81.08;100908.83;129613;1262;114869;-63
2024/01/20 00:14:49;;;;;;;13.80;4.60;;;;;;;-2.91;80.95;100909.15;129892;1277;114797;-62
2024/01/20 00:17:51;;;;;;;10.70;4.40;;;;;;;-2.94;80.86;100908.22;129892;1258;114830;-62
2024/01/20 00:20:53;;;;;;;17.10;4.40;;;;;;;-2.99;80.93;100908.69;129460;1259;115091;-62
2024/01/20 00:23:55;;;;;;;10.50;4.60;;;;;;;-3.02;80.89;100912.11;129730;1259;115221;-63
2024/01/20 00:26:57;;;;;;;12.80;4.70;;;;;;;-3.07;80.78;100913.78;129779;1262;114741;-62
2024/01/20 00:29:59;;;;;;;10.50;3.90;;;;;;;-3.11;80.96;100919.84;129452;1265;114880;-64
2024/01/20 00:33:02;;;;;;;13.20;4.10;;;;;;;-3.17;80.87;100915.38;129825;1278;114785;-63
2024/01/20 00:36:04;;;;;;;12.80;4.70;;;;;;;-3.22;81.08;100915.47;129784;1259;114781;-62
2024/01/20 00:39:07;;;;;;;13.40;4.30;;;;;;;-3.26;80.80;100917.15;129843;1278;114804;-63
2024/01/20 00:42:09;;;;;;;13.70;4.80;;;;;;;-3.31;81.03;100922.14;129672;1260;116527;-62
2024/01/20 00:45:11;;;;;;;11.20;3.80;;;;;;;-3.34;81.15;100926.44;129755;1260;114699;-63
2024/01/20 00:48:13;;;;;;;17.20;4.80;;;;;;;-3.38;81.00;100928.64;129896;1259;115182;-62
2024/01/20 00:51:16;;;;;;;8.40;4.30;;;;;;;-3.41;81.24;100923.71;129675;1264;114865;-62
2024/01/20 00:54:18;;;;;;;11.30;4.30;;;;;;;-3.43;81.27;100924.52;129725;1259;114721;-62
2024/01/20 00:57:20;;;;;;;10.00;3.90;;;;;;;-3.46;81.20;100925.36;129794;1275;114726;-63
2024/01/20 01:00:22;;;;;;;8.90;4.20;;;;;;;-3.48;81.22;100930.39;129451;1265;128403;-62
2024/01/20 01:03:24;;;;;;;11.40;4.70;;;;;;;-3.53;81.10;100925.92;129692;1259;115256;-63
2024/01/20 01:06:26;;;;;;;12.00;3.80;;;;;;;-3.57;81.16;100926.56;129887;1259;115219;-61
2024/01/20 01:09:28;;;;;;;8.10;3.60;;;;;;;-3.60;81.23;100926.85;129668;1263;114806;-62
2024/01/20 01:12:30;;;;;;;12.00;3.60;;;;;;;-3.64;81.00;100919.45;129844;1259;115166;-61
2024/01/20 01:15:32;;;;;;;10.80;3.50;;;;;;;-3.67;81.26;100923.93;129924;1277;114641;-63
2024/01/20 01:22:37;;;;;;;8.00;4.20;;;;;;;-3.73;81.28;100931.84;129239;1265;128253;-62
2024/01/20 01:25:38;;;;;;;8.60;3.40;;;;;;;-3.74;81.22;100931.11;129160;1265;114907;-63
2024/01/20 01:28:41;;;;;;;8.40;3.30;;;;;;;-3.76;81.38;100942.27;129232;1265;114840;-62
2024/01/20 01:31:44;;;;;;;9.70;3.20;;;;;;;-3.78;81.17;100939.25;129223;1265;114850;-62
2024/01/20 01:34:46;;;;;;;11.00;3.70;;;;;;;-3.80;81.36;100938.69;129287;1263;115289;-63
2024/01/20 01:37:48;;;;;;;9.20;4.40;;;;;;;-3.82;81.45;100942.33;129169;1265;114865;-62
2024/01/20 01:40:50;;;;;;;7.80;3.40;;;;;;;-3.84;81.63;100941.59;129291;1261;115715;-62
2024/01/20 01:43:53;;;;;;;7.70;3.50;;;;;;;-3.85;81.62;100944.71;129183;1265;129782;-61
2024/01/20 01:46:55;;;;;;;9.30;3.80;;;;;;;-3.86;81.43;100946.06;129142;1265;115341;-63
2024/01/20 01:49:58;;;;;;;12.10;3.90;;;;;;;-3.87;81.38;100945.01;129312;1263;114851;-62
2024/01/20 01:53:00;;;;;;;8.10;3.90;;;;;;;-3.89;81.60;100951.61;129449;1264;114891;-62
2024/01/20 01:56:03;;;;;;;10.20;3.30;;;;;;;-3.90;81.48;100954.91;129506;1262;114900;-62
2024/01/20 01:59:05;;;;;;;9.10;3.20;;;;;;;-3.91;81.59;100959.24;129438;1262;115187;-62
2024/01/20 02:02:08;;;;;;;8.20;3.50;;;;;;;-3.92;81.26;100961.66;129793;1271;115280;-63
2024/01/20 02:05:10;;;;;;;11.00;4.30;;;;;;;-3.93;81.67;100959.88;129645;1256;128897;-62
2024/01/20 02:08:12;;;;;;;9.50;4.10;;;;;;;-3.94;81.53;100956.20;129814;1266;114695;-62
2024/01/20 02:11:15;;;;;;;10.30;4.60;;;;;;;-3.96;81.70;100961.94;129954;1260;115241;-62
2024/01/20 02:14:19;;;;;;;7.70;3.50;;;;;;;-3.97;81.57;100960.35;129970;1259;114694;-63
2024/01/20 02:17:21;;;;;;;6.70;3.10;;;;;;;-4.00;81.44;100959.59;129673;1265;116368;-63
2024/01/20 02:20:24;;;;;;;11.70;3.70;;;;;;;-4.04;81.29;100959.67;129822;1254;115311;-62
2024/01/20 02:23:27;;;;;;;9.20;3.60;;;;;;;-4.07;81.77;100955.79;129839;1259;115329;-63
2024/01/20 02:26:29;;;;;;;12.40;4.40;;;;;;;-4.10;81.88;100953.80;129969;1258;114798;-63
2024/01/20 02:29:31;;;;;;;10.10;3.70;;;;;;;-4.12;81.49;100959.85;129555;1262;114726;-62
2024/01/20 02:32:34;;;;;;;10.30;3.60;;;;;;;-4.14;81.42;100964.54;129989;1260;114769;-63
2024/01/20 02:35:36;;;;;;;9.60;3.70;;;;;;;-4.16;81.38;100965.02;129914;1254;114730;-62
2024/01/20 02:38:38;;;;;;;10.80;4.00;;;;;;;-4.18;81.77;100967.95;129901;1259;114681;-62
2024/01/20 02:41:40;;;;;;;11.50;4.20;;;;;;;-4.20;81.70;100973.65;129733;1262;116359;-62
2024/01/20 02:44:42;;;;;;;10.40;3.50;;;;;;;-4.22;81.60;100974.48;129912;1277;114702;-62
2024/01/20 02:47:44;;;;;;;10.10;5.80;;;;;;;-4.23;81.84;100978.63;129984;1259;114701;-62
2024/01/20 02:50:46;;;;;;;10.40;4.40;;;;;;;-4.26;81.99;100977.19;129846;1255;114824;-62
2024/01/20 02:53:48;;;;;;;14.70;5.80;;;;;;;-4.26;81.61;100983.45;129931;1259;114822;-62
2024/01/20 02:56:51;;;;;;;15.50;6.10;;;;;;;-4.27;81.78;100980.13;129968;1259;115242;-63
2024/01/20 02:59:53;;;;;;;14.00;4.80;;;;;;;-4.29;81.65;100985.65;129851;1259;114684;-62
2024/01/20 03:02:55;;;;;;;16.40;5.40;;;;;;;-4.30;81.55;100991.40;129899;1257;114807;-63
2024/01/20 03:05:57;;;;;;;20.70;6.10;;;;;;;-4.30;81.69;100994.88;129951;1260;114853;-63
2024/01/20 03:09:00;;;;;;;16.10;6.40;;;;;;;-4.32;81.54;100998.85;129792;1257;128856;-63
2024/01/20 03:12:02;;;;;;;16.10;6.10;;;;;;;-4.34;81.54;101002.64;129823;1259;114763;-62
2024/01/20 03:15:07;;;;;;;13.40;5.20;;;;;;;-4.38;81.20;101004.64;129964;1259;114734;-63
2024/01/20 03:18:10;;;;;;;16.00;6.60;;;;;;;-4.43;81.60;101008.02;129950;1256;114703;-63
2024/01/20 03:21:13;;;;;;;18.70;5.90;;;;;;;-4.48;81.85;101012.45;129952;1258;114731;-62
2024/01/20 03:24:20;;;;;;;14.40;5.40;;;;;;;-4.53;81.12;101009.01;129824;1277;114887;-62
2024/01/20 03:27:23;;;;;;;13.20;4.30;;;;;;;-4.57;81.58;101011.70;129884;1267;115043;-63
2024/01/20 03:30:25;;;;;;;11.60;4.80;;;;;;;-4.60;81.67;101007.79;129876;1259;114817;-62
2024/01/20 03:33:27;;;;;;;12.60;4.90;;;;;;;-4.63;81.43;101006.85;129867;1259;114706;-63
2024/01/20 03:36:29;;;;;;;9.60;3.80;;;;;;;-4.64;81.85;101009.11;129639;1274;114866;-63
2024/01/20 03:39:31;;;;;;;12.90;3.80;;;;;;;-4.64;82.13;101011.19;129781;1259;115164;-62
2024/01/20 03:42:33;;;;;;;7.30;2.70;;;;;;;-4.64;81.58;101006.48;129760;1274;114894;-62
2024/01/20 03:45:35;;;;;;;8.40;2.90;;;;;;;-4.65;81.31;101011.86;129914;1260;128813;-63
2024/01/20 03:48:39;;;;;;;7.20;3.60;;;;;;;-4.66;81.65;101008.52;129970;1257;115417;-62
2024/01/20 03:51:41;;;;;;;9.30;3.10;;;;;;;-4.67;81.77;101009.36;129983;1259;114742;-63
2024/01/20 03:54:43;;;;;;;7.90;3.20;;;;;;;-4.68;81.66;101013.17;129870;1259;114818;-63
2024/01/20 03:57:45;;;;;;;7.20;2.60;;;;;;;-4.70;81.25;101014.00;129879;1277;114783;-63
2024/01/20 04:00:47;;;;;;;7.40;2.70;;;;;;;-4.71;81.26;101021.45;129548;1262;114781;-63
2024/01/20 04:03:50;;;;;;;8.20;3.40;;;;;;;-4.72;81.76;101023.89;129715;1277;114740;-64
2024/01/20 04:06:53;;;;;;;6.40;2.70;;;;;;;-4.72;81.26;101022.49;129959;1259;115190;-63
2024/01/20 04:09:55;;;;;;;6.00;2.60;;;;;;;-4.72;81.44;101025.80;130016;1259;114836;-63
2024/01/20 04:12:57;;;;;;;5.30;2.60;;;;;;;-4.71;81.74;101031.92;129496;1262;115320;-62
2024/01/20 04:15:59;;;;;;;5.30;2.10;;;;;;;-4.71;81.51;101039.23;129922;1269;114852;-63
2024/01/20 04:19:01;;;;;;;8.10;3.30;;;;;;;-4.70;81.72;101038.57;129936;1269;114911;-62
2024/01/20 04:22:04;;;;;;;9.00;2.80;;;;;;;-4.69;82.07;101043.81;129649;1259;114727;-63
2024/01/20 04:25:07;;;;;;;5.00;2.40;;;;;;;-4.68;82.26;101047.67;129889;1271;115328;-63
2024/01/20 04:28:09;;;;;;;4.80;2.80;;;;;;;-4.66;82.40;101050.36;130000;1260;114963;-62
2024/01/20 04:31:11;;;;;;;5.80;2.50;;;;;;;-4.65;82.16;101055.08;129808;1272;115184;-63
2024/01/20 04:34:13;;;;;;;7.50;2.50;;;;;;;-4.64;81.89;101063.30;129517;1265;114738;-62
2024/01/20 04:37:15;;;;;;;6.60;3.30;;;;;;;-4.63;81.28;101062.98;129792;1259;114745;-63
2024/01/20 04:40:17;;;;;;;9.60;3.30;;;;;;;-4.62;81.41;101061.58;129741;1259;114712;-62
2024/01/20 04:43:20;;;;;;;8.70;2.90;;;;;;;-4.61;81.68;101065.80;129776;1259;114808;-63
2024/01/20 04:46:22;;;;;;;6.90;3.10;;;;;;;-4.57;81.94;101067.31;129826;1269;114826;-63
2024/01/20 04:49:24;;;;;;;8.90;2.90;;;;;;;-4.50;82.48;101068.69;129767;1263;114754;-63
2024/01/20 04:52:26;;;;;;;9.10;3.10;;;;;;;-4.43;82.27;101072.69;129500;1268;114812;-62
2024/01/20 04:55:28;;;;;;;6.90;3.40;;;;;;;-4.36;82.15;101079.84;129765;1261;115278;-63
2024/01/20 04:58:31;;;;;;;6.50;3.10;;;;;;;-4.30;82.08;101085.91;129817;1269;114689;-63
2024/01/20 05:01:36;;;;;;;8.60;3.90;;;;;;;-4.23;81.99;101085.56;129795;1259;114757;-63
2024/01/20 05:04:38;;;;;;;10.40;3.20;;;;;;;-4.15;82.45;101088.52;129472;1263;116348;-64
2024/01/20 05:07:40;;;;;;;6.30;2.90;;;;;;;-4.06;82.64;101096.24;129656;1258;114818;-63
2024/01/20 05:10:42;;;;;;;8.70;3.30;;;;;;;-3.95;82.36;101099.95;129851;1261;115322;-63
2024/01/20 05:13:45;;;;;;;8.00;2.40;;;;;;;-3.85;82.90;101103.34;129485;1265;115684;-63
2024/01/20 05:16:48;;;;;;;8.00;3.20;;;;;;;-3.73;82.79;101102.55;129692;1274;115333;-63
2024/01/20 05:19:50;;;;;;;9.50;3.60;;;;;;;-3.61;82.85;101103.67;129757;1260;115293;-62
2024/01/20 05:22:52;;;;;;;8.90;3.30;;;;;;;-3.50;83.00;101098.15;129767;1257;114709;-62
2024/01/20 05:25:54;;;;;;;11.70;4.00;;;;;;;-3.40;82.90;101102.03;129380;1265;114874;-63
2024/01/20 05:28:56;;;;;;;6.50;3.10;;;;;;;-3.30;82.81;101095.59;129697;1271;114737;-63
2024/01/20 05:31:59;;;;;;;9.10;3.50;;;;;;;-3.23;82.70;101088.21;129861;1260;114946;-63
2024/01/20 05:35:01;;;;;;;6.90;3.50;;;;;;;-3.15;82.88;101090.11;129376;1261;115390;-63
2024/01/20 05:38:03;;;;;;;9.50;3.70;;;;;;;-3.10;82.73;101097.90;129623;1269;114688;-63
2024/01/20 05:41:07;;;;;;;8.00;4.00;;;;;;;-3.09;82.51;101101.60;129722;1262;114730;-64
2024/01/20 05:44:09;;;;;;;5.10;2.90;;;;;;;-3.09;82.53;101105.08;129737;1263;114878;-63
2024/01/20 05:47:11;;;;;;;6.70;3.10;;;;;;;-3.11;82.48;101108.52;129774;1272;115187;-62
2024/01/20 05:50:13;;;;;;;8.30;3.90;;;;;;;-3.15;81.92;101112.84;129732;1269;115234;-63
2024/01/20 05:53:15;;;;;;;7.60;3.30;;;;;;;-3.19;81.91;101119.56;129642;1275;129008;-64
2024/01/20 05:56:21;;;;;;;9.60;3.80;;;;;;;-3.24;81.68;101119.65;129410;1265;114964;-62
2024/01/20 05:59:23;;;;;;;7.10;3.30;;;;;;;-3.28;81.68;101119.90;129799;1259;114725;-64
2024/01/20 06:02:25;;;;;;;8.00;4.10;;;;;;;-3.33;81.46;101123.48;129709;1263;114804;-63
2024/01/20 06:05:27;;;;;;;7.70;4.70;;;;;;;-3.37;81.54;101125.31;130046;1269;115235;-64
2024/01/20 06:08:30;;;;;;;7.20;3.70;;;;;;;-3.41;81.50;101125.58;129787;1262;114781;-62
2024/01/20 06:11:33;;;;;;;7.20;3.90;;;;;;;-3.44;81.38;101131.61;130019;1278;114821;-62
2024/01/20 06:14:35;;;;;;;8.40;3.60;;;;;;;-3.46;81.55;101135.41;129920;1260;115138;-62
2024/01/20 06:17:38;;;;;;;11.80;4.00;;;;;;;-3.48;81.49;101129.45;130102;1260;114757;-61
2024/01/20 06:20:40;;;;;;;8.90;3.70;;;;;;;-3.48;81.69;101129.98;129528;1260;114833;-62
2024/01/20 06:23:42;;;;;;;11.60;4.40;;;;;;;-3.47;81.89;101129.64;129733;1259;114846;-62
2024/01/20 06:26:44;;;;;;;11.70;4.60;;;;;;;-3.45;81.82;101135.41;130022;1264;114724;-62
2024/01/20 06:29:49;;;;;;;11.20;3.90;;;;;;;-3.44;81.78;101135.46;129622;1270;114791;-63
2024/01/20 06:32:56;;;;;;;7.20;3.00;;;;;;;-3.44;81.80;101140.36;129931;1277;128820;-63
2024/01/20 06:35:59;;;;;;;7.40;3.10;;;;;;;-3.44;81.68;101140.36;129788;1262;114746;-63
2024/01/20 06:39:01;;;;;;;9.00;3.60;;;;;;;-3.43;81.50;101148.42;130025;1259;115253;-63
2024/01/20 06:42:04;;;;;;;8.00;3.30;;;;;;;-3.42;81.75;101147.72;130035;1258;114725;-63
2024/01/20 06:45:06;;;;;;;8.10;3.60;;;;;;;-3.44;81.42;101146.98;129989;1268;114841;-63
2024/01/20 06:48:09;;;;;;;8.00;3.40;;;;;;;-3.47;80.95;101146.92;129981;1268;114747;-63
2024/01/20 06:51:14;;;;;;;9.40;4.00;;;;;;;-3.50;81.31;101144.77;129994;1267;115078;-63
2024/01/20 06:54:20;;;;;;;7.10;3.80;;;;;;;-3.52;81.23;101155.23;129986;1260;114806;-63
2024/01/20 06:57:21;;;;;;;6.40;3.00;;;;;;;-3.48;81.17;101155.63;129957;1258;114763;-63
2024/01/20 07:00:24;;;;;;;9.20;4.40;;;;;;;-3.47;81.44;101156.37;129857;1260;114731;-62
2024/01/20 07:03:26;;;;;;;9.00;3.50;;;;;;;-3.45;81.23;101157.44;129900;1269;114750;-62
2024/01/20 07:06:28;;;;;;;8.10;3.40;;;;;;;-3.43;81.27;101156.79;129565;1272;114707;-63
2024/01/20 07:09:31;;;;;;;9.80;3.90;;;;;;;-3.42;81.16;101158.22;129875;1278;115425;-62
2024/01/20 07:12:33;;;;;;;8.30;4.90;;;;;;;-3.41;80.97;101160.49;129661;1261;114725;-63
2024/01/20 07:15:35;;;;;;;8.50;3.80;;;;;;;-3.39;80.77;101160.55;129999;1270;114705;-62
2024/01/20 07:18:39;;;;;;;9.60;3.90;;;;;;;-3.34;81.34;101156.10;129964;1268;114709;-63
2024/01/20 07:21:41;;;;;;;9.30;4.30;;;;;;;-3.31;81.30;101155.31;129955;1263;115186;-63
2024/01/20 07:24:43;;;;;;;6.20;3.50;;;;;;;-3.28;80.94;101155.71;129868;1267;114882;-62
2024/01/20 07:27:46;;;;;;;12.90;4.60;;;;;;;-3.25;81.19;101155.27;129915;1263;114718;-63
2024/01/20 07:30:48;;;;;;;8.50;4.10;;;;;;;-3.23;81.02;101158.80;129551;1260;127604;-65
2024/01/20 07:33:50;;;;;;;10.00;4.40;;;;;;;-3.22;80.59;101158.11;129769;1268;114817;-63
2024/01/20 07:36:52;;;;;;;12.70;5.70;;;;;;;-3.20;80.87;101159.72;130060;1260;114847;-63
2024/01/20 07:39:55;;;;;;;21.30;11.20;;;;;;;-3.19;80.80;101154.34;129519;1262;114719;-63
2024/01/20 07:42:57;;;;;;;22.40;11.90;;;;;;;-3.16;81.10;101157.54;129768;1261;114921;-65
2024/01/20 07:46:04;;;;;;;21.70;14.00;;;;;;;-3.12;80.97;101170.04;129647;1263;114766;-70
2024/01/20 07:49:06;;;;;;;79.20;24.70;;;;;;;-3.02;80.87;101174.23;130007;1270;114830;-71
2024/01/20 07:52:08;;;;;;;98.20;32.00;;;;;;;-2.86;81.00;101177.16;130002;1260;114802;-70
2024/01/20 07:55:16;;;;;;;78.50;27.60;;;;;;;-2.71;80.92;101177.11;129938;1270;115253;-72
2024/01/20 07:58:22;;;;;;;21.90;9.60;;;;;;;-2.51;80.84;101178.71;129836;1262;114851;-71
2024/01/20 08:01:25;;;;;;;7.90;4.50;;;;;;;-2.28;80.89;101183.31;129978;1261;114691;-72
2024/01/20 08:04:30;;;;;;;8.20;4.10;;;;;;;-2.05;80.52;101185.80;130024;1270;114854;-68
2024/01/20 08:07:35;;;;;;;10.10;4.00;;;;;;;-1.81;80.41;101187.58;129863;1264;130166;-71
2024/01/20 08:10:38;;;;;;;11.60;4.40;;;;;;;-1.63;80.05;101189.96;129847;1264;114824;-69
2024/01/20 08:13:40;;;;;;;13.10;5.00;;;;;;;-1.48;79.55;101197.01;129990;1260;114799;-71
2024/01/20 08:16:48;;;;;;;10.00;4.50;;;;;;;-1.36;79.65;101201.03;130009;1264;114829;-71
2024/01/20 08:19:50;;;;;;;10.90;4.30;;;;;;;-1.25;79.78;101198.18;129906;1270;115192;-70
2024/01/20 08:22:52;;;;;;;7.40;3.40;;;;;;;-1.16;79.26;101204.98;130154;1261;114977;-70
2024/01/20 08:25:54;;;;;;;8.70;3.70;;;;;;;-1.10;79.23;101208.73;129473;1279;129963;-69
2024/01/20 08:28:56;;;;;;;8.60;4.30;;;;;;;-1.00;78.66;101214.30;129571;1263;115955;-69
2024/01/20 08:31:59;;;;;;;9.60;4.10;;;;;;;-0.85;79.00;101217.45;129640;1263;114694;-72
2024/01/20 08:35:01;;;;;;;10.00;5.00;;;;;;;-0.67;79.08;101215.91;130000;1279;115440;-71
2024/01/20 08:38:03;;;;;;;7.50;3.60;;;;;;;-0.48;78.75;101213.85;130030;1257;114810;-70
2024/01/20 08:41:09;;;;;;;7.70;5.40;;;;;;;-0.29;78.78;101214.22;129904;1261;114780;-70
2024/01/20 08:44:11;;;;;;;7.60;3.80;;;;;;;-0.12;78.50;101212.63;129741;1263;127880;-71
2024/01/20 08:47:16;;;;;;;10.50;4.80;;;;;;;0.05;78.22;101218.21;129987;1271;114716;-70
2024/01/20 08:50:18;;;;;;;8.50;3.90;;;;;;;0.22;78.30;101222.75;129869;1258;114833;-73
2024/01/20 08:53:20;;;;;;;11.10;6.10;;;;;;;0.39;78.04;101231.84;129925;1262;114756;-75
2024/01/20 08:56:22;;;;;;;12.80;5.40;;;;;;;0.58;77.69;101231.44;129854;1258;115075;-70
2024/01/20 08:59:24;;;;;;;8.70;4.60;;;;;;;0.69;77.13;101237.14;129933;1270;114780;-69
2024/01/20 09:02:26;;;;;;;8.00;4.00;;;;;;;0.76;77.02;101239.98;129823;1260;129275;-70
2024/01/20 09:05:28;;;;;;;9.20;5.60;;;;;;;0.85;76.73;101236.35;130015;1273;114809;-69
2024/01/20 09:08:30;;;;;;;6.70;4.10;;;;;;;0.91;76.20;101231.45;130534;1269;114761;-70
2024/01/20 09:11:32;;;;;;;8.70;4.20;;;;;;;0.95;75.78;101233.77;130097;1258;114837;-69
2024/01/20 09:14:36;;;;;;;10.90;4.80;;;;;;;1.00;76.28;101236.42;130019;1257;114724;-69
2024/01/20 09:17:38;;;;;;;9.80;5.60;;;;;;;1.09;76.21;101241.39;129962;1260;114772;-69
2024/01/20 09:20:40;;;;;;;13.10;5.70;;;;;;;1.12;75.83;101244.40;129976;1260;114836;-71
2024/01/20 09:23:42;;;;;;;12.70;7.10;;;;;;;1.15;75.62;101242.83;129957;1271;114797;-71
2024/01/20 09:26:45;;;;;;;10.00;5.20;;;;;;;1.21;75.74;101243.39;129591;1260;114753;-71
2024/01/20 09:29:47;;;;;;;7.90;4.00;;;;;;;1.25;74.75;101244.45;129735;1260;114738;-71
2024/01/20 09:32:49;;;;;;;14.00;7.50;;;;;;;1.25;74.95;101246.58;129659;1262;114720;-70
2024/01/20 09:35:51;;;;;;;11.20;6.40;;;;;;;1.30;75.29;101250.29;129652;1261;114868;-68
2024/01/20 09:38:53;;;;;;;12.40;6.10;;;;;;;1.34;74.98;101252.05;129686;1271;114808;-71
2024/01/20 09:41:56;;;;;;;10.30;6.00;;;;;;;1.38;74.74;101253.65;129877;1269;114682;-71
2024/01/20 09:44:59;;;;;;;9.20;5.50;;;;;;;1.38;74.27;101246.97;129638;1278;128307;-71
2024/01/20 09:48:02;;;;;;;7.30;4.80;;;;;;;1.39;74.54;101250.48;129878;1256;115394;-70
2024/01/20 09:51:04;;;;;;;6.10;3.60;;;;;;;1.44;74.28;101242.41;129797;1260;114753;-70
2024/01/20 09:54:07;;;;;;;10.50;5.00;;;;;;;1.45;73.88;101243.64;129635;1261;114954;-72
2024/01/20 09:57:11;;;;;;;6.30;2.90;;;;;;;1.47;73.79;101246.48;129643;1263;114763;-73
2024/01/20 10:00:16;;;;;;;6.90;4.20;;;;;;;1.49;73.72;101246.13;129962;1258;114787;-69
2024/01/20 10:03:20;;;;;;;8.60;4.00;;;;;;;1.53;74.32;101241.38;129768;1260;130409;-69
2024/01/20 10:06:24;;;;;;;5.20;3.50;;;;;;;1.58;73.81;101239.80;129847;1261;115116;-69
2024/01/20 10:09:28;;;;;;;9.30;4.80;;;;;;;1.59;73.15;101236.12;129535;1261;115171;-70
2024/01/20 10:12:30;;;;;;;6.60;4.40;;;;;;;1.61;73.31;101237.36;129787;1278;114922;-72
2024/01/20 10:15:33;;;;;;;11.10;4.50;;;;;;;1.62;73.68;101234.56;129900;1270;114735;-72
2024/01/20 10:18:35;;;;;;;8.10;3.60;;;;;;;1.64;73.47;101232.80;129783;1270;114792;-68
2024/01/20 10:21:41;;;;;;;6.80;3.90;;;;;;;1.65;73.00;101233.67;129705;1272;115078;-71
2024/01/20 10:24:50;;;;;;;7.80;4.10;;;;;;;1.66;72.86;101232.98;129741;1261;114814;-70
2024/01/20 10:27:53;;;;;;;8.50;4.30;;;;;;;1.66;72.79;101234.92;129896;1260;114939;-72
2024/01/20 10:30:56;;;;;;;9.10;4.40;;;;;;;1.67;72.71;101235.95;129830;1257;114799;-68
2024/01/20 10:33:58;;;;;;;9.70;5.10;;;;;;;1.70;72.54;101234.02;129746;1270;114722;-69
2024/01/20 10:37:01;;;;;;;7.10;3.90;;;;;;;1.70;72.49;101238.08;129905;1258;115661;-71
2024/01/20 10:40:05;;;;;;;6.60;3.70;;;;;;;1.70;72.55;101239.32;129588;1278;126962;-71
2024/01/20 10:43:12;;;;;;;7.40;4.10;;;;;;;1.70;72.06;101241.42;129492;1262;114914;-68
2024/01/20 10:46:23;;;;;;;10.50;5.80;;;;;;;1.68;72.20;101244.25;129816;1269;115374;-69
2024/01/20 10:49:25;;;;;;;11.60;6.00;;;;;;;1.68;71.90;101246.89;129746;1260;115129;-68
2024/01/20 10:52:27;;;;;;;10.00;5.80;;;;;;;1.68;71.91;101246.88;129575;1260;114765;-68
2024/01/20 10:55:30;;;;;;;8.10;4.40;;;;;;;1.67;72.00;101248.65;129644;1270;114627;-67
2024/01/20 10:58:35;;;;;;;9.20;3.60;;;;;;;1.69;71.89;101250.40;129544;1257;128826;-67
2024/01/20 11:01:39;;;;;;;6.30;3.80;;;;;;;1.70;71.85;101246.70;129691;1260;114812;-68
2024/01/20 11:04:43;;;;;;;7.50;3.70;;;;;;;1.72;71.59;101246.89;129511;1257;115098;-68
2024/01/20 11:08:22;;;;;;;8.40;4.60;;;;;;;1.73;71.56;101252.52;129697;1260;115483;-67
2024/01/20 11:11:28;;;;;;;9.30;4.60;;;;;;;1.73;71.77;101244.96;129052;1268;114792;-67
2024/01/20 11:14:31;;;;;;;8.10;4.90;;;;;;;1.74;71.59;101243.38;128921;1270;283545;-69
2024/01/20 11:17:33;;;;;;;13.80;8.00;;;;;;;1.79;71.37;101241.45;129269;1264;114867;-67
2024/01/20 11:20:35;;;;;;;7.00;3.40;;;;;;;1.80;71.21;101240.77;129087;1267;114879;-70
2024/01/20 11:23:37;;;;;;;6.30;3.00;;;;;;;1.83;71.18;101235.12;129080;1286;114841;-67
2024/01/20 11:26:39;;;;;;;7.50;3.80;;;;;;;1.86;71.02;101230.36;129224;1268;114820;-67
2024/01/20 11:29:41;;;;;;;7.30;4.10;;;;;;;1.89;70.90;101227.73;129178;1267;114898;-69
2024/01/20 11:32:43;;;;;;;5.10;3.30;;;;;;;1.91;70.52;101221.20;129260;1267;114891;-68
2024/01/20 11:35:46;;;;;;;6.00;3.00;;;;;;;1.90;70.36;101218.04;128808;1270;129568;-68
2024/01/20 11:38:49;;;;;;;6.60;3.30;;;;;;;1.89;70.57;101216.64;128988;1268;114838;-68
2024/01/20 11:42:03;;;;;;;6.30;3.20;;;;;;;1.90;70.40;101218.91;129096;1286;114905;-69
2024/01/20 11:45:06;;;;;;;6.50;4.10;;;;;;;1.92;70.22;101213.64;129089;1267;114816;-68
2024/01/20 11:48:09;;;;;;;9.40;4.20;;;;;;;1.94;70.56;101215.75;129377;1267;114720;-69
2024/01/20 11:51:11;;;;;;;7.20;2.90;;;;;;;1.94;70.17;101215.39;129557;1279;114735;-68
2024/01/20 11:54:14;;;;;;;6.20;3.60;;;;;;;1.96;70.43;101212.92;129593;1260;114757;-69
2024/01/20 11:57:23;;;;;;;6.90;2.90;;;;;;;1.99;70.24;101213.46;129940;1260;115152;-68
2024/01/20 12:00:26;;;;;;;6.80;3.60;;;;;;;1.99;69.69;101209.23;129642;1256;114739;-68
2024/01/20 12:03:28;;;;;;;7.20;3.70;;;;;;;1.98;69.93;101206.25;129999;1260;115153;-68
2024/01/20 12:06:31;;;;;;;8.20;3.40;;;;;;;1.98;70.03;101200.96;129946;1271;114710;-68
2024/01/20 12:09:33;;;;;;;6.30;3.80;;;;;;;2.00;70.35;101196.71;129617;1274;115315;-70
2024/01/20 12:12:36;;;;;;;7.60;3.50;;;;;;;2.01;69.95;101194.42;129613;1256;128181;-69
2024/01/20 12:15:44;;;;;;;8.00;4.20;;;;;;;2.01;69.61;101198.13;129632;1261;114768;-68
2024/01/20 12:18:47;;;;;;;6.80;3.60;;;;;;;2.01;69.49;101194.44;129479;1258;115174;-68
2024/01/20 12:21:50;;;;;;;9.60;3.90;;;;;;;2.00;69.48;101198.13;129622;1260;114759;-68
2024/01/20 12:24:54;;;;;;;5.90;3.70;;;;;;;2.01;69.82;101198.83;129419;1279;114699;-68
2024/01/20 12:28:01;;;;;;;7.70;3.30;;;;;;;2.01;69.70;101197.08;129701;1261;128260;-69
2024/01/20 12:31:04;;;;;;;7.10;3.60;;;;;;;2.05;69.75;101193.21;129587;1272;115289;-68
2024/01/20 12:34:06;;;;;;;6.20;3.50;;;;;;;2.07;69.61;101188.80;129759;1263;115193;-67
2024/01/20 12:37:08;;;;;;;6.40;3.80;;;;;;;2.07;69.47;101181.04;129753;1277;114722;-69
2024/01/20 12:40:11;;;;;;;6.30;4.00;;;;;;;2.07;69.63;101184.57;129846;1258;114706;-67
2024/01/20 12:43:13;;;;;;;5.30;3.10;;;;;;;2.06;69.58;101191.10;129749;1263;115275;-70
2024/01/20 12:46:17;;;;;;;5.30;3.20;;;;;;;2.05;69.38;101194.27;129797;1274;114632;-68
2024/01/20 12:49:20;;;;;;;7.80;3.30;;;;;;;2.01;69.37;101196.02;129549;1264;126876;-68
2024/01/20 12:52:22;;;;;;;5.60;3.20;;;;;;;1.99;69.56;101199.19;129636;1257;114957;-69
2024/01/20 12:55:24;;;;;;;4.40;2.60;;;;;;;1.97;69.41;101206.42;129975;1259;115302;-68
2024/01/20 12:58:30;;;;;;;5.70;2.90;;;;;;;1.95;69.45;101205.54;129984;1255;115244;-68
2024/01/20 13:01:32;;;;;;;6.70;3.50;;;;;;;1.95;69.46;101203.06;129802;1256;114829;-69
2024/01/20 13:04:34;;;;;;;8.60;3.70;;;;;;;1.92;69.61;101198.84;129761;1270;115222;-70
2024/01/20 13:07:36;;;;;;;8.30;4.20;;;;;;;1.89;69.65;101195.67;129852;1256;115730;-69
2024/01/20 13:10:38;;;;;;;5.50;2.50;;;;;;;1.88;69.75;101197.08;129504;1263;128513;-69
2024/01/20 13:13:40;;;;;;;5.80;2.20;;;;;;;1.86;69.42;101197.08;129836;1259;114728;-69
2024/01/20 13:16:45;;;;;;;7.80;3.60;;;;;;;1.84;69.38;101202.71;129879;1256;114731;-69
2024/01/20 13:19:47;;;;;;;6.00;3.10;;;;;;;1.82;69.46;101204.47;130389;1257;114631;-69
2024/01/20 13:22:49;;;;;;;8.40;3.90;;;;;;;1.81;69.65;101202.72;130577;1255;115342;-68
2024/01/20 13:25:54;;;;;;;6.80;3.10;;;;;;;1.82;69.56;101203.23;130154;1263;115238;-69
2024/01/20 13:28:58;;;;;;;7.10;3.00;;;;;;;1.81;69.42;101208.52;129947;1278;127391;-69
2024/01/20 13:32:01;;;;;;;8.50;4.10;;;;;;;1.80;69.40;101209.92;129864;1257;115366;-68
2024/01/20 13:35:03;;;;;;;6.10;3.10;;;;;;;1.78;69.56;101217.48;129918;1259;114828;-69
2024/01/20 13:38:06;;;;;;;7.10;3.50;;;;;;;1.76;69.53;101217.48;129938;1256;114760;-69
2024/01/20 13:41:08;;;;;;;7.50;3.30;;;;;;;1.74;69.66;101219.95;129984;1278;114675;-68
2024/01/20 13:44:10;;;;;;;6.60;4.00;;;;;;;1.72;69.40;101216.79;129783;1259;114706;-68
2024/01/20 13:47:12;;;;;;;9.30;4.30;;;;;;;1.70;69.17;101217.48;130084;1261;114929;-68
2024/01/20 13:50:16;;;;;;;5.20;2.80;;;;;;;1.67;69.51;101216.59;129884;1261;114704;-68
2024/01/20 13:53:20;;;;;;;17.20;6.60;;;;;;;1.62;69.06;101216.59;129704;1260;115067;-68
2024/01/20 13:56:24;;;;;;;7.80;4.00;;;;;;;1.58;69.28;101223.78;129600;1260;114821;-68